sensor_id;sensor_type;location;lat;lon;timestamp;temperature;humidity
8459;DHT22;4266;48.816;9.154;2024-02-16T00:01:03;10.50;83.80
8459;DHT22;4266;48.816;9.154;2024-02-16T00:03:30;10.50;83.80
8459;DHT22;4266;48.816;9.154;2024-02-16T00:05:55;10.60;83.40
8459;DHT22;4266;48.816;9.154;2024-02-16T00:08:21;10.50;83.70
8459;DHT22;4266;48.816;9.154;2024-02-16T00:10:47;10.50;83.20
8459;DHT22;4266;48.816;9.154;2024-02-16T00:13:12;10.50;83.10
8459;DHT22;4266;48.816;9.154;2024-02-16T00:15:38;10.60;83.00
8459;DHT22;4266;48.816;9.154;2024-02-16T00:18:05;10.60;82.70
8459;DHT22;4266;48.816;9.154;2024-02-16T00:20:32;10.70;82.20
8459;DHT22;4266;48.816;9.154;2024-02-16T00:22:58;10.70;82.20
8459;DHT22;4266;48.816;9.154;2024-02-16T00:25:24;10.60;81.70
8459;DHT22;4266;48.816;9.154;2024-02-16T00:27:49;10.60;81.70
8459;DHT22;4266;48.816;9.154;2024-02-16T00:30:16;10.40;82.60
8459;DHT22;4266;48.816;9.154;2024-02-16T00:32:41;10.40;82.60
8459;DHT22;4266;48.816;9.154;2024-02-16T00:35:08;10.10;85.00
8459;DHT22;4266;48.816;9.154;2024-02-16T00:37:34;10.10;84.90
8459;DHT22;4266;48.816;9.154;2024-02-16T00:39:59;10.20;85.40
8459;DHT22;4266;48.816;9.154;2024-02-16T00:42:26;10.40;84.70
8459;DHT22;4266;48.816;9.154;2024-02-16T00:44:51;10.30;84.60
8459;DHT22;4266;48.816;9.154;2024-02-16T00:47:18;10.30;84.70
8459;DHT22;4266;48.816;9.154;2024-02-16T00:49:44;10.30;84.30
8459;DHT22;4266;48.816;9.154;2024-02-16T00:52:09;10.10;85.70
8459;DHT22;4266;48.816;9.154;2024-02-16T00:54:36;9.90;88.80
8459;DHT22;4266;48.816;9.154;2024-02-16T00:57:03;10.00;88.60
8459;DHT22;4266;48.816;9.154;2024-02-16T00:59:29;10.10;88.10
8459;DHT22;4266;48.816;9.154;2024-02-16T01:01:55;10.00;88.40
8459;DHT22;4266;48.816;9.154;2024-02-16T01:04:20;10.00;88.50
8459;DHT22;4266;48.816;9.154;2024-02-16T01:06:46;10.10;88.70
8459;DHT22;4266;48.816;9.154;2024-02-16T01:09:12;10.10;88.90
8459;DHT22;4266;48.816;9.154;2024-02-16T01:11:41;10.10;88.90
8459;DHT22;4266;48.816;9.154;2024-02-16T01:14:04;10.10;88.80
8459;DHT22;4266;48.816;9.154;2024-02-16T01:16:30;10.00;89.80
8459;DHT22;4266;48.816;9.154;2024-02-16T01:18:56;10.00;89.40
8459;DHT22;4266;48.816;9.154;2024-02-16T01:21:22;10.20;88.10
8459;DHT22;4266;48.816;9.154;2024-02-16T01:23:48;10.20;88.10
8459;DHT22;4266;48.816;9.154;2024-02-16T01:26:14;10.20;87.40
8459;DHT22;4266;48.816;9.154;2024-02-16T01:28:39;10.10;87.50
8459;DHT22;4266;48.816;9.154;2024-02-16T01:31:06;10.10;88.80
8459;DHT22;4266;48.816;9.154;2024-02-16T01:33:31;10.10;88.80
8459;DHT22;4266;48.816;9.154;2024-02-16T01:35:58;10.00;89.20
8459;DHT22;4266;48.816;9.154;2024-02-16T01:38:24;10.10;88.70
8459;DHT22;4266;48.816;9.154;2024-02-16T01:40:50;10.10;88.70
8459;DHT22;4266;48.816;9.154;2024-02-16T01:43:20;10.20;87.00
8459;DHT22;4266;48.816;9.154;2024-02-16T01:45:45;10.30;86.20
8459;DHT22;4266;48.816;9.154;2024-02-16T01:48:11;10.40;85.30
8459;DHT22;4266;48.816;9.154;2024-02-16T01:50:37;10.40;85.60
8459;DHT22;4266;48.816;9.154;2024-02-16T01:53:03;10.40;85.60
8459;DHT22;4266;48.816;9.154;2024-02-16T01:55:29;10.40;85.40
8459;DHT22;4266;48.816;9.154;2024-02-16T01:57:54;10.20;86.40
8459;DHT22;4266;48.816;9.154;2024-02-16T02:00:20;10.20;87.20
8459;DHT22;4266;48.816;9.154;2024-02-16T02:02:46;10.20;87.80
8459;DHT22;4266;48.816;9.154;2024-02-16T02:05:13;10.30;86.00
8459;DHT22;4266;48.816;9.154;2024-02-16T02:07:38;10.20;85.90
8459;DHT22;4266;48.816;9.154;2024-02-16T02:10:04;10.30;86.60
8459;DHT22;4266;48.816;9.154;2024-02-16T02:12:30;10.20;87.30
8459;DHT22;4266;48.816;9.154;2024-02-16T02:14:55;10.20;87.80
8459;DHT22;4266;48.816;9.154;2024-02-16T02:17:21;10.20;88.20
8459;DHT22;4266;48.816;9.154;2024-02-16T02:19:47;10.10;88.50
8459;DHT22;4266;48.816;9.154;2024-02-16T02:22:17;10.20;88.60
8459;DHT22;4266;48.816;9.154;2024-02-16T02:24:43;10.20;89.40
8459;DHT22;4266;48.816;9.154;2024-02-16T02:27:08;10.20;89.40
8459;DHT22;4266;48.816;9.154;2024-02-16T02:29:34;10.30;89.40
8459;DHT22;4266;48.816;9.154;2024-02-16T02:32:00;10.30;89.30
8459;DHT22;4266;48.816;9.154;2024-02-16T02:34:26;10.30;89.30
8459;DHT22;4266;48.816;9.154;2024-02-16T02:36:53;10.30;88.80
8459;DHT22;4266;48.816;9.154;2024-02-16T02:39:18;10.20;88.70
8459;DHT22;4266;48.816;9.154;2024-02-16T02:41:45;10.30;89.30
8459;DHT22;4266;48.816;9.154;2024-02-16T02:44:10;10.20;89.20
8459;DHT22;4266;48.816;9.154;2024-02-16T02:46:36;10.30;88.40
8459;DHT22;4266;48.816;9.154;2024-02-16T02:49:02;10.30;88.30
8459;DHT22;4266;48.816;9.154;2024-02-16T02:51:27;10.20;88.40
8459;DHT22;4266;48.816;9.154;2024-02-16T02:53:53;10.20;88.60
8459;DHT22;4266;48.816;9.154;2024-02-16T02:56:19;10.20;88.70
8459;DHT22;4266;48.816;9.154;2024-02-16T02:58:45;10.20;88.80
8459;DHT22;4266;48.816;9.154;2024-02-16T03:01:11;10.30;89.00
8459;DHT22;4266;48.816;9.154;2024-02-16T03:03:36;10.20;89.40
8459;DHT22;4266;48.816;9.154;2024-02-16T03:06:04;10.20;89.50
8459;DHT22;4266;48.816;9.154;2024-02-16T03:08:31;10.20;89.80
8459;DHT22;4266;48.816;9.154;2024-02-16T03:10:57;10.20;89.80
8459;DHT22;4266;48.816;9.154;2024-02-16T03:13:22;10.20;89.80
8459;DHT22;4266;48.816;9.154;2024-02-16T03:15:48;10.20;89.70
8459;DHT22;4266;48.816;9.154;2024-02-16T03:18:14;10.10;90.10
8459;DHT22;4266;48.816;9.154;2024-02-16T03:20:39;10.20;90.20
8459;DHT22;4266;48.816;9.154;2024-02-16T03:23:05;10.10;90.30
8459;DHT22;4266;48.816;9.154;2024-02-16T03:25:31;10.10;90.40
8459;DHT22;4266;48.816;9.154;2024-02-16T03:27:57;10.10;90.50
8459;DHT22;4266;48.816;9.154;2024-02-16T03:30:23;10.10;90.40
8459;DHT22;4266;48.816;9.154;2024-02-16T03:32:49;10.10;90.40
8459;DHT22;4266;48.816;9.154;2024-02-16T03:35:14;10.00;90.20
8459;DHT22;4266;48.816;9.154;2024-02-16T03:37:40;10.00;90.40
8459;DHT22;4266;48.816;9.154;2024-02-16T03:40:07;9.90;91.50
8459;DHT22;4266;48.816;9.154;2024-02-16T03:42:33;9.90;92.20
8459;DHT22;4266;48.816;9.154;2024-02-16T03:44:59;9.90;92.20
8459;DHT22;4266;48.816;9.154;2024-02-16T03:47:25;9.90;92.30
8459;DHT22;4266;48.816;9.154;2024-02-16T03:49:51;9.90;92.20
8459;DHT22;4266;48.816;9.154;2024-02-16T03:52:16;9.90;92.20
8459;DHT22;4266;48.816;9.154;2024-02-16T03:54:42;9.90;92.40
8459;DHT22;4266;48.816;9.154;2024-02-16T03:57:07;9.90;92.70
8459;DHT22;4266;48.816;9.154;2024-02-16T03:59:33;9.90;92.70
8459;DHT22;4266;48.816;9.154;2024-02-16T04:01:59;9.90;92.70
8459;DHT22;4266;48.816;9.154;2024-02-16T04:04:25;10.00;92.10
8459;DHT22;4266;48.816;9.154;2024-02-16T04:06:51;9.90;92.60
8459;DHT22;4266;48.816;9.154;2024-02-16T04:09:17;9.90;93.00
8459;DHT22;4266;48.816;9.154;2024-02-16T04:11:44;9.90;93.00
8459;DHT22;4266;48.816;9.154;2024-02-16T04:14:09;9.90;92.70
8459;DHT22;4266;48.816;9.154;2024-02-16T04:16:35;9.80;92.60
8459;DHT22;4266;48.816;9.154;2024-02-16T04:19:01;9.80;92.60
8459;DHT22;4266;48.816;9.154;2024-02-16T04:21:27;9.80;92.60
8459;DHT22;4266;48.816;9.154;2024-02-16T04:23:53;9.80;92.60
8459;DHT22;4266;48.816;9.154;2024-02-16T04:26:18;9.80;92.80
8459;DHT22;4266;48.816;9.154;2024-02-16T04:28:44;9.80;92.50
8459;DHT22;4266;48.816;9.154;2024-02-16T04:31:10;9.80;92.60
8459;DHT22;4266;48.816;9.154;2024-02-16T04:33:35;9.80;92.80
8459;DHT22;4266;48.816;9.154;2024-02-16T04:36:01;9.80;92.80
8459;DHT22;4266;48.816;9.154;2024-02-16T04:38:27;9.80;92.50
8459;DHT22;4266;48.816;9.154;2024-02-16T04:40:53;9.80;92.50
8459;DHT22;4266;48.816;9.154;2024-02-16T04:43:19;9.90;92.50
8459;DHT22;4266;48.816;9.154;2024-02-16T04:45:44;9.90;92.40
8459;DHT22;4266;48.816;9.154;2024-02-16T04:51:04;9.80;92.30
8459;DHT22;4266;48.816;9.154;2024-02-16T04:53:30;9.80;92.70
8459;DHT22;4266;48.816;9.154;2024-02-16T04:55:56;9.80;92.70
8459;DHT22;4266;48.816;9.154;2024-02-16T04:58:21;9.80;92.60
8459;DHT22;4266;48.816;9.154;2024-02-16T05:00:47;9.80;92.70
8459;DHT22;4266;48.816;9.154;2024-02-16T05:03:14;9.90;92.50
8459;DHT22;4266;48.816;9.154;2024-02-16T05:05:39;9.80;92.50
8459;DHT22;4266;48.816;9.154;2024-02-16T05:08:05;9.80;92.50
8459;DHT22;4266;48.816;9.154;2024-02-16T05:10:31;9.80;92.60
8459;DHT22;4266;48.816;9.154;2024-02-16T05:12:57;9.70;92.60
8459;DHT22;4266;48.816;9.154;2024-02-16T05:15:22;9.80;92.60
8459;DHT22;4266;48.816;9.154;2024-02-16T05:17:49;9.80;92.50
8459;DHT22;4266;48.816;9.154;2024-02-16T05:20:14;9.80;92.50
8459;DHT22;4266;48.816;9.154;2024-02-16T05:22:47;9.80;92.20
8459;DHT22;4266;48.816;9.154;2024-02-16T05:25:13;9.80;92.10
8459;DHT22;4266;48.816;9.154;2024-02-16T05:27:39;9.80;92.10
8459;DHT22;4266;48.816;9.154;2024-02-16T05:30:08;9.80;92.10
8459;DHT22;4266;48.816;9.154;2024-02-16T05:32:34;9.80;92.10
8459;DHT22;4266;48.816;9.154;2024-02-16T05:34:59;9.80;92.10
8459;DHT22;4266;48.816;9.154;2024-02-16T05:37:25;9.80;92.20
8459;DHT22;4266;48.816;9.154;2024-02-16T05:39:50;9.80;92.20
8459;DHT22;4266;48.816;9.154;2024-02-16T05:42:20;9.80;92.10
8459;DHT22;4266;48.816;9.154;2024-02-16T05:44:45;9.80;92.00
8459;DHT22;4266;48.816;9.154;2024-02-16T05:47:11;9.80;92.00
8459;DHT22;4266;48.816;9.154;2024-02-16T05:49:37;9.80;92.00
8459;DHT22;4266;48.816;9.154;2024-02-16T05:52:05;9.90;91.60
8459;DHT22;4266;48.816;9.154;2024-02-16T05:54:36;9.90;91.60
8459;DHT22;4266;48.816;9.154;2024-02-16T05:57:03;9.90;91.20
8459;DHT22;4266;48.816;9.154;2024-02-16T05:59:29;9.90;91.40
8459;DHT22;4266;48.816;9.154;2024-02-16T06:01:55;9.90;91.40
8459;DHT22;4266;48.816;9.154;2024-02-16T06:04:21;9.90;91.40
8459;DHT22;4266;48.816;9.154;2024-02-16T06:06:46;9.80;91.40
8459;DHT22;4266;48.816;9.154;2024-02-16T06:12:07;9.80;91.20
8459;DHT22;4266;48.816;9.154;2024-02-16T06:14:33;9.80;91.20
8459;DHT22;4266;48.816;9.154;2024-02-16T06:16:59;9.80;91.10
8459;DHT22;4266;48.816;9.154;2024-02-16T06:19:25;9.80;91.10
8459;DHT22;4266;48.816;9.154;2024-02-16T06:21:50;9.80;91.00
8459;DHT22;4266;48.816;9.154;2024-02-16T06:24:16;9.80;91.10
8459;DHT22;4266;48.816;9.154;2024-02-16T06:26:42;9.90;91.00
8459;DHT22;4266;48.816;9.154;2024-02-16T06:29:07;9.90;90.90
8459;DHT22;4266;48.816;9.154;2024-02-16T06:31:34;9.70;90.80
8459;DHT22;4266;48.816;9.154;2024-02-16T06:36:54;9.90;90.60
8459;DHT22;4266;48.816;9.154;2024-02-16T06:39:20;9.90;90.60
8459;DHT22;4266;48.816;9.154;2024-02-16T06:41:46;10.20;89.00
8459;DHT22;4266;48.816;9.154;2024-02-16T06:44:12;10.10;88.90
8459;DHT22;4266;48.816;9.154;2024-02-16T06:46:37;10.10;88.30
8459;DHT22;4266;48.816;9.154;2024-02-16T06:49:04;10.10;88.50
8459;DHT22;4266;48.816;9.154;2024-02-16T06:51:29;10.00;88.30
8459;DHT22;4266;48.816;9.154;2024-02-16T06:54:04;10.00;88.20
8459;DHT22;4266;48.816;9.154;2024-02-16T06:56:29;10.00;88.40
8459;DHT22;4266;48.816;9.154;2024-02-16T06:58:55;9.90;89.70
8459;DHT22;4266;48.816;9.154;2024-02-16T07:01:21;10.00;88.60
8459;DHT22;4266;48.816;9.154;2024-02-16T07:03:46;10.00;88.40
8459;DHT22;4266;48.816;9.154;2024-02-16T07:06:12;10.20;88.50
8459;DHT22;4266;48.816;9.154;2024-02-16T07:08:40;10.30;87.80
8459;DHT22;4266;48.816;9.154;2024-02-16T07:11:05;10.30;87.80
8459;DHT22;4266;48.816;9.154;2024-02-16T07:13:31;10.40;88.40
8459;DHT22;4266;48.816;9.154;2024-02-16T07:15:56;10.50;87.70
8459;DHT22;4266;48.816;9.154;2024-02-16T07:18:23;11.00;86.50
8459;DHT22;4266;48.816;9.154;2024-02-16T07:20:48;11.00;86.50
8459;DHT22;4266;48.816;9.154;2024-02-16T07:23:14;11.40;85.10
8459;DHT22;4266;48.816;9.154;2024-02-16T07:25:40;12.10;82.90
8459;DHT22;4266;48.816;9.154;2024-02-16T07:31:00;11.10;83.60
8459;DHT22;4266;48.816;9.154;2024-02-16T07:33:25;11.00;84.00
8459;DHT22;4266;48.816;9.154;2024-02-16T07:35:52;10.60;84.60
8459;DHT22;4266;48.816;9.154;2024-02-16T07:38:17;10.60;84.60
8459;DHT22;4266;48.816;9.154;2024-02-16T07:40:44;10.70;84.70
8459;DHT22;4266;48.816;9.154;2024-02-16T07:43:10;10.70;84.60
8459;DHT22;4266;48.816;9.154;2024-02-16T07:45:35;10.80;84.10
8459;DHT22;4266;48.816;9.154;2024-02-16T07:48:01;10.80;83.80
8459;DHT22;4266;48.816;9.154;2024-02-16T07:50:27;11.00;83.10
8459;DHT22;4266;48.816;9.154;2024-02-16T07:52:52;11.20;82.40
8459;DHT22;4266;48.816;9.154;2024-02-16T07:55:18;11.20;82.10
8459;DHT22;4266;48.816;9.154;2024-02-16T07:57:44;11.20;81.70
8459;DHT22;4266;48.816;9.154;2024-02-16T08:00:11;11.20;81.70
8459;DHT22;4266;48.816;9.154;2024-02-16T08:05:23;11.30;81.70
8459;DHT22;4266;48.816;9.154;2024-02-16T08:10:42;12.30;80.10
8459;DHT22;4266;48.816;9.154;2024-02-16T08:13:08;13.20;79.40
8459;DHT22;4266;48.816;9.154;2024-02-16T08:15:34;15.30;75.10
8459;DHT22;4266;48.816;9.154;2024-02-16T08:17:59;16.70;68.60
8459;DHT22;4266;48.816;9.154;2024-02-16T08:20:25;18.20;64.30
8459;DHT22;4266;48.816;9.154;2024-02-16T08:25:40;20.20;56.70
8459;DHT22;4266;48.816;9.154;2024-02-16T08:28:06;20.20;56.70
8459;DHT22;4266;48.816;9.154;2024-02-16T08:33:26;21.50;53.00
8459;DHT22;4266;48.816;9.154;2024-02-16T08:35:51;21.50;53.00
8459;DHT22;4266;48.816;9.154;2024-02-16T08:38:17;22.60;52.40
8459;DHT22;4266;48.816;9.154;2024-02-16T08:40:43;22.20;50.90
8459;DHT22;4266;48.816;9.154;2024-02-16T08:43:08;21.40;50.10
8459;DHT22;4266;48.816;9.154;2024-02-16T08:45:34;19.20;50.80
8459;DHT22;4266;48.816;9.154;2024-02-16T08:48:00;19.40;51.50
8459;DHT22;4266;48.816;9.154;2024-02-16T08:50:25;19.90;51.20
8459;DHT22;4266;48.816;9.154;2024-02-16T08:52:52;23.20;48.80
8459;DHT22;4266;48.816;9.154;2024-02-16T08:55:18;23.20;48.80
8459;DHT22;4266;48.816;9.154;2024-02-16T08:57:43;22.70;49.00
8459;DHT22;4266;48.816;9.154;2024-02-16T09:00:10;24.90;47.70
8459;DHT22;4266;48.816;9.154;2024-02-16T09:02:36;25.40;47.10
8459;DHT22;4266;48.816;9.154;2024-02-16T09:05:02;26.50;45.80
8459;DHT22;4266;48.816;9.154;2024-02-16T09:07:27;27.20;45.20
8459;DHT22;4266;48.816;9.154;2024-02-16T09:09:54;27.30;43.50
8459;DHT22;4266;48.816;9.154;2024-02-16T09:12:19;27.30;43.50
8459;DHT22;4266;48.816;9.154;2024-02-16T09:14:45;27.80;43.00
8459;DHT22;4266;48.816;9.154;2024-02-16T09:17:11;29.00;43.00
8459;DHT22;4266;48.816;9.154;2024-02-16T09:19:36;29.00;42.20
8459;DHT22;4266;48.816;9.154;2024-02-16T09:22:02;28.60;41.50
8459;DHT22;4266;48.816;9.154;2024-02-16T09:24:28;28.10;41.50
8459;DHT22;4266;48.816;9.154;2024-02-16T09:26:54;27.30;41.70
8459;DHT22;4266;48.816;9.154;2024-02-16T09:29:19;26.30;42.00
8459;DHT22;4266;48.816;9.154;2024-02-16T09:31:48;27.30;41.50
8459;DHT22;4266;48.816;9.154;2024-02-16T09:37:05;25.30;41.30
8459;DHT22;4266;48.816;9.154;2024-02-16T09:39:30;24.50;42.20
8459;DHT22;4266;48.816;9.154;2024-02-16T09:42:00;23.10;42.60
8459;DHT22;4266;48.816;9.154;2024-02-16T09:44:28;22.70;43.10
8459;DHT22;4266;48.816;9.154;2024-02-16T09:46:53;22.70;43.10
8459;DHT22;4266;48.816;9.154;2024-02-16T09:49:33;22.10;43.70
8459;DHT22;4266;48.816;9.154;2024-02-16T09:52:08;22.10;43.70
8459;DHT22;4266;48.816;9.154;2024-02-16T09:54:33;23.20;43.90
8459;DHT22;4266;48.816;9.154;2024-02-16T09:57:01;26.20;43.50
8459;DHT22;4266;48.816;9.154;2024-02-16T09:59:27;26.20;43.40
8459;DHT22;4266;48.816;9.154;2024-02-16T10:02:00;28.20;41.60
8459;DHT22;4266;48.816;9.154;2024-02-16T10:04:26;28.20;41.60
8459;DHT22;4266;48.816;9.154;2024-02-16T10:12:34;27.50;41.20
8459;DHT22;4266;48.816;9.154;2024-02-16T10:15:00;25.80;41.80
8459;DHT22;4266;48.816;9.154;2024-02-16T10:17:26;24.90;42.50
8459;DHT22;4266;48.816;9.154;2024-02-16T10:19:56;25.00;42.50
8459;DHT22;4266;48.816;9.154;2024-02-16T10:22:21;24.00;42.80
8459;DHT22;4266;48.816;9.154;2024-02-16T10:24:48;23.80;42.30
8459;DHT22;4266;48.816;9.154;2024-02-16T10:27:15;23.80;42.40
8459;DHT22;4266;48.816;9.154;2024-02-16T10:29:40;24.00;42.30
8459;DHT22;4266;48.816;9.154;2024-02-16T10:32:06;23.90;42.50
8459;DHT22;4266;48.816;9.154;2024-02-16T10:34:31;23.70;42.50
8459;DHT22;4266;48.816;9.154;2024-02-16T10:36:57;23.40;42.30
8459;DHT22;4266;48.816;9.154;2024-02-16T10:39:24;23.10;42.20
8459;DHT22;4266;48.816;9.154;2024-02-16T10:41:49;23.10;42.20
8459;DHT22;4266;48.816;9.154;2024-02-16T10:44:16;22.50;43.10
8459;DHT22;4266;48.816;9.154;2024-02-16T10:46:41;22.40;43.00
8459;DHT22;4266;48.816;9.154;2024-02-16T10:49:07;22.40;43.00
8459;DHT22;4266;48.816;9.154;2024-02-16T10:51:48;21.90;43.10
8459;DHT22;4266;48.816;9.154;2024-02-16T10:54:14;21.70;43.00
8459;DHT22;4266;48.816;9.154;2024-02-16T10:56:40;21.50;44.00
8459;DHT22;4266;48.816;9.154;2024-02-16T10:59:07;21.30;43.20
8459;DHT22;4266;48.816;9.154;2024-02-16T11:01:32;21.10;43.40
8459;DHT22;4266;48.816;9.154;2024-02-16T11:04:01;20.80;43.60
8459;DHT22;4266;48.816;9.154;2024-02-16T11:06:27;20.70;43.80
8459;DHT22;4266;48.816;9.154;2024-02-16T11:08:53;20.80;43.80
8459;DHT22;4266;48.816;9.154;2024-02-16T11:11:22;20.60;43.50
8459;DHT22;4266;48.816;9.154;2024-02-16T11:13:48;20.70;44.40
8459;DHT22;4266;48.816;9.154;2024-02-16T11:16:14;20.80;43.80
8459;DHT22;4266;48.816;9.154;2024-02-16T11:18:40;20.60;44.10
8459;DHT22;4266;48.816;9.154;2024-02-16T11:21:05;20.70;44.10
8459;DHT22;4266;48.816;9.154;2024-02-16T11:23:31;20.80;44.10
8459;DHT22;4266;48.816;9.154;2024-02-16T11:26:05;20.80;43.80
8459;DHT22;4266;48.816;9.154;2024-02-16T11:28:31;20.80;43.80
8459;DHT22;4266;48.816;9.154;2024-02-16T11:30:57;20.40;44.00
8459;DHT22;4266;48.816;9.154;2024-02-16T11:33:23;20.30;44.30
8459;DHT22;4266;48.816;9.154;2024-02-16T11:35:55;20.40;44.70
8459;DHT22;4266;48.816;9.154;2024-02-16T11:38:20;20.40;44.70
8459;DHT22;4266;48.816;9.154;2024-02-16T11:40:55;20.20;44.70
8459;DHT22;4266;48.816;9.154;2024-02-16T11:43:21;20.30;44.50
8459;DHT22;4266;48.816;9.154;2024-02-16T11:45:47;20.40;45.00
8459;DHT22;4266;48.816;9.154;2024-02-16T11:48:12;20.30;44.90
8459;DHT22;4266;48.816;9.154;2024-02-16T11:50:39;20.60;44.60
8459;DHT22;4266;48.816;9.154;2024-02-16T11:53:05;20.70;44.60
8459;DHT22;4266;48.816;9.154;2024-02-16T11:55:31;20.70;44.60
8459;DHT22;4266;48.816;9.154;2024-02-16T11:57:57;20.80;45.40
8459;DHT22;4266;48.816;9.154;2024-02-16T12:00:23;20.80;45.40
8459;DHT22;4266;48.816;9.154;2024-02-16T12:02:58;21.00;45.00
8459;DHT22;4266;48.816;9.154;2024-02-16T12:05:15;20.90;45.30
8459;DHT22;4266;48.816;9.154;2024-02-16T12:07:41;20.90;45.20
8459;DHT22;4266;48.816;9.154;2024-02-16T12:10:08;21.30;45.40
8459;DHT22;4266;48.816;9.154;2024-02-16T12:12:34;21.30;45.40
8459;DHT22;4266;48.816;9.154;2024-02-16T12:14:59;21.20;45.30
8459;DHT22;4266;48.816;9.154;2024-02-16T12:17:25;21.20;45.40
8459;DHT22;4266;48.816;9.154;2024-02-16T12:19:51;21.10;45.40
8459;DHT22;4266;48.816;9.154;2024-02-16T12:22:18;21.30;45.80
8459;DHT22;4266;48.816;9.154;2024-02-16T12:24:46;21.00;45.70
8459;DHT22;4266;48.816;9.154;2024-02-16T12:27:11;21.10;45.80
8459;DHT22;4266;48.816;9.154;2024-02-16T12:29:37;21.20;45.70
8459;DHT22;4266;48.816;9.154;2024-02-16T12:32:03;20.80;45.90
8459;DHT22;4266;48.816;9.154;2024-02-16T12:34:29;20.70;45.70
8459;DHT22;4266;48.816;9.154;2024-02-16T12:36:55;20.60;45.90
8459;DHT22;4266;48.816;9.154;2024-02-16T12:39:21;20.20;45.60
8459;DHT22;4266;48.816;9.154;2024-02-16T12:41:47;20.00;45.90
8459;DHT22;4266;48.816;9.154;2024-02-16T12:44:12;20.50;46.00
8459;DHT22;4266;48.816;9.154;2024-02-16T12:46:38;20.40;46.50
8459;DHT22;4266;48.816;9.154;2024-02-16T12:49:04;20.40;46.70
8459;DHT22;4266;48.816;9.154;2024-02-16T12:51:29;20.30;47.00
8459;DHT22;4266;48.816;9.154;2024-02-16T12:53:55;20.30;47.20
8459;DHT22;4266;48.816;9.154;2024-02-16T12:56:21;20.00;47.50
8459;DHT22;4266;48.816;9.154;2024-02-16T12:58:47;20.10;47.90
8459;DHT22;4266;48.816;9.154;2024-02-16T13:01:14;19.80;47.90
8459;DHT22;4266;48.816;9.154;2024-02-16T13:03:39;19.80;47.90
8459;DHT22;4266;48.816;9.154;2024-02-16T13:06:05;19.60;48.20
8459;DHT22;4266;48.816;9.154;2024-02-16T13:08:32;19.60;48.40
8459;DHT22;4266;48.816;9.154;2024-02-16T13:10:58;19.50;48.00
8459;DHT22;4266;48.816;9.154;2024-02-16T13:13:25;19.60;48.70
8459;DHT22;4266;48.816;9.154;2024-02-16T13:15:51;19.70;48.80
8459;DHT22;4266;48.816;9.154;2024-02-16T13:18:17;19.70;48.80
8459;DHT22;4266;48.816;9.154;2024-02-16T13:20:43;19.70;49.10
8459;DHT22;4266;48.816;9.154;2024-02-16T13:23:08;19.80;48.80
8459;DHT22;4266;48.816;9.154;2024-02-16T13:25:35;19.60;48.90
8459;DHT22;4266;48.816;9.154;2024-02-16T13:28:01;19.70;49.20
8459;DHT22;4266;48.816;9.154;2024-02-16T13:30:26;19.60;49.10
8459;DHT22;4266;48.816;9.154;2024-02-16T13:32:52;19.50;49.10
8459;DHT22;4266;48.816;9.154;2024-02-16T13:35:19;19.80;49.30
8459;DHT22;4266;48.816;9.154;2024-02-16T13:37:44;19.70;49.20
8459;DHT22;4266;48.816;9.154;2024-02-16T13:40:11;19.70;49.30
8459;DHT22;4266;48.816;9.154;2024-02-16T13:42:38;19.50;49.10
8459;DHT22;4266;48.816;9.154;2024-02-16T13:45:02;19.60;49.60
8459;DHT22;4266;48.816;9.154;2024-02-16T13:47:28;19.50;49.10
8459;DHT22;4266;48.816;9.154;2024-02-16T13:49:54;19.70;49.40
8459;DHT22;4266;48.816;9.154;2024-02-16T13:52:19;19.60;49.30
8459;DHT22;4266;48.816;9.154;2024-02-16T13:54:45;19.50;49.00
8459;DHT22;4266;48.816;9.154;2024-02-16T13:57:11;19.50;49.20
8459;DHT22;4266;48.816;9.154;2024-02-16T13:59:36;19.60;49.30
8459;DHT22;4266;48.816;9.154;2024-02-16T14:02:03;19.20;50.00
8459;DHT22;4266;48.816;9.154;2024-02-16T14:04:29;19.20;50.00
8459;DHT22;4266;48.816;9.154;2024-02-16T14:06:54;19.10;50.00
8459;DHT22;4266;48.816;9.154;2024-02-16T14:09:20;19.20;49.80
8459;DHT22;4266;48.816;9.154;2024-02-16T14:11:46;19.00;49.80
8459;DHT22;4266;48.816;9.154;2024-02-16T14:14:12;18.70;50.30
8459;DHT22;4266;48.816;9.154;2024-02-16T14:16:37;18.70;50.30
8459;DHT22;4266;48.816;9.154;2024-02-16T14:19:03;18.80;50.00
8459;DHT22;4266;48.816;9.154;2024-02-16T14:21:29;18.70;50.20
8459;DHT22;4266;48.816;9.154;2024-02-16T14:23:55;18.60;50.40
8459;DHT22;4266;48.816;9.154;2024-02-16T14:26:20;18.60;50.50
8459;DHT22;4266;48.816;9.154;2024-02-16T14:28:46;18.40;51.00
8459;DHT22;4266;48.816;9.154;2024-02-16T14:31:12;18.30;51.20
8459;DHT22;4266;48.816;9.154;2024-02-16T14:33:37;18.20;51.30
8459;DHT22;4266;48.816;9.154;2024-02-16T14:36:04;18.10;51.70
8459;DHT22;4266;48.816;9.154;2024-02-16T14:38:30;18.10;51.50
8459;DHT22;4266;48.816;9.154;2024-02-16T14:40:56;18.10;51.30
8459;DHT22;4266;48.816;9.154;2024-02-16T14:43:22;18.10;51.40
8459;DHT22;4266;48.816;9.154;2024-02-16T14:45:49;17.90;51.60
8459;DHT22;4266;48.816;9.154;2024-02-16T14:48:15;17.80;51.70
8459;DHT22;4266;48.816;9.154;2024-02-16T14:50:41;17.80;51.70
8459;DHT22;4266;48.816;9.154;2024-02-16T14:53:08;17.60;52.30
8459;DHT22;4266;48.816;9.154;2024-02-16T14:55:34;17.50;52.10
8459;DHT22;4266;48.816;9.154;2024-02-16T14:58:00;17.50;52.10
8459;DHT22;4266;48.816;9.154;2024-02-16T15:00:26;17.60;52.50
8459;DHT22;4266;48.816;9.154;2024-02-16T15:02:53;17.30;52.60
8459;DHT22;4266;48.816;9.154;2024-02-16T15:05:18;17.30;52.70
8459;DHT22;4266;48.816;9.154;2024-02-16T15:07:44;17.30;52.90
8459;DHT22;4266;48.816;9.154;2024-02-16T15:10:10;17.30;53.00
8459;DHT22;4266;48.816;9.154;2024-02-16T15:12:35;17.30;53.10
8459;DHT22;4266;48.816;9.154;2024-02-16T15:15:01;17.30;53.20
8459;DHT22;4266;48.816;9.154;2024-02-16T15:17:27;17.30;53.40
8459;DHT22;4266;48.816;9.154;2024-02-16T15:19:53;17.40;53.40
8459;DHT22;4266;48.816;9.154;2024-02-16T15:22:18;17.30;53.40
8459;DHT22;4266;48.816;9.154;2024-02-16T15:24:45;17.30;53.60
8459;DHT22;4266;48.816;9.154;2024-02-16T15:27:11;17.20;53.60
8459;DHT22;4266;48.816;9.154;2024-02-16T15:29:37;17.20;53.60
8459;DHT22;4266;48.816;9.154;2024-02-16T15:32:03;17.20;53.70
8459;DHT22;4266;48.816;9.154;2024-02-16T15:34:29;17.10;53.80
8459;DHT22;4266;48.816;9.154;2024-02-16T15:36:55;17.00;54.00
8459;DHT22;4266;48.816;9.154;2024-02-16T15:39:20;16.90;54.10
8459;DHT22;4266;48.816;9.154;2024-02-16T15:41:46;16.90;54.20
8459;DHT22;4266;48.816;9.154;2024-02-16T15:44:12;16.90;54.30
8459;DHT22;4266;48.816;9.154;2024-02-16T15:46:37;16.90;54.40
8459;DHT22;4266;48.816;9.154;2024-02-16T15:49:04;16.70;54.80
8459;DHT22;4266;48.816;9.154;2024-02-16T15:51:30;16.60;54.90
8459;DHT22;4266;48.816;9.154;2024-02-16T15:53:56;16.60;54.90
8459;DHT22;4266;48.816;9.154;2024-02-16T15:56:21;16.50;54.90
8459;DHT22;4266;48.816;9.154;2024-02-16T15:58:47;16.50;55.00
8459;DHT22;4266;48.816;9.154;2024-02-16T16:01:13;16.40;55.30
8459;DHT22;4266;48.816;9.154;2024-02-16T16:03:39;16.30;55.20
8459;DHT22;4266;48.816;9.154;2024-02-16T16:06:05;16.40;55.30
8459;DHT22;4266;48.816;9.154;2024-02-16T16:08:31;16.30;55.40
8459;DHT22;4266;48.816;9.154;2024-02-16T16:10:57;16.20;55.80
8459;DHT22;4266;48.816;9.154;2024-02-16T16:13:23;16.20;55.80
8459;DHT22;4266;48.816;9.154;2024-02-16T16:15:49;16.10;56.10
8459;DHT22;4266;48.816;9.154;2024-02-16T16:18:15;16.10;56.10
8459;DHT22;4266;48.816;9.154;2024-02-16T16:20:41;16.20;56.30
8459;DHT22;4266;48.816;9.154;2024-02-16T16:23:06;16.00;56.30
8459;DHT22;4266;48.816;9.154;2024-02-16T16:25:32;16.00;56.60
8459;DHT22;4266;48.816;9.154;2024-02-16T16:27:57;15.90;56.80